createdAt,value
2023-05-06T00:00:11.198Z,248.30
2023-05-06T00:01:11.210Z,249.49
2023-05-06T00:02:11.207Z,248.31
2023-05-06T00:03:11.331Z,248.28
2023-05-06T00:04:11.275Z,248.57
2023-05-06T00:05:11.683Z,249.42
2023-05-06T00:06:11.217Z,250.00
2023-05-06T00:07:11.240Z,249.83
2023-05-06T00:08:11.263Z,249.48
2023-05-06T00:09:11.263Z,248.65
2023-05-06T00:10:11.351Z,248.13
2023-05-06T00:11:11.275Z,247.64
2023-05-06T00:12:11.302Z,247.80
2023-05-06T00:13:11.315Z,248.70
2023-05-06T00:14:11.335Z,249.60
2023-05-06T00:15:11.607Z,249.92
2023-05-06T00:16:11.421Z,250.00
2023-05-06T00:17:11.355Z,249.53
2023-05-06T00:18:11.334Z,249.67
2023-05-06T00:19:11.352Z,249.41
2023-05-06T00:20:11.382Z,250.00
2023-05-06T00:21:11.429Z,248.64
2023-05-06T00:22:11.449Z,249.21
2023-05-06T00:23:11.462Z,249.27
2023-05-06T00:24:11.444Z,249.04
2023-05-06T00:25:11.684Z,249.97
2023-05-06T00:26:11.458Z,249.52
2023-05-06T00:27:11.518Z,249.26
2023-05-06T00:28:11.528Z,249.92
2023-05-06T00:29:11.528Z,249.12
2023-05-06T00:30:11.554Z,249.23
2023-05-06T00:31:11.605Z,249.61
2023-05-06T00:32:11.678Z,249.85
2023-05-06T00:33:11.733Z,249.97
2023-05-06T00:34:11.627Z,249.81
2023-05-06T00:35:11.674Z,249.71
2023-05-06T00:36:11.623Z,249.49
2023-05-06T00:37:11.652Z,249.80
2023-05-06T00:38:11.601Z,249.77
2023-05-06T00:39:11.626Z,249.83
2023-05-06T00:40:11.617Z,250.00
2023-05-06T00:41:11.664Z,250.00
2023-05-06T00:42:11.682Z,249.08
2023-05-06T00:43:11.695Z,249.90
2023-05-06T00:44:11.705Z,249.31
2023-05-06T00:45:11.974Z,249.05
2023-05-06T00:46:11.806Z,249.67
2023-05-06T00:47:11.739Z,250.00
2023-05-06T00:48:11.797Z,249.46
2023-05-06T00:49:11.924Z,250.00
2023-05-06T00:50:11.857Z,249.14
2023-05-06T00:51:11.850Z,248.70
2023-05-06T00:52:11.850Z,247.99
2023-05-06T00:53:11.847Z,246.21
2023-05-06T00:54:11.881Z,242.77
2023-05-06T00:55:11.916Z,240.66
2023-05-06T00:56:11.935Z,239.12
2023-05-06T00:57:11.992Z,240.70
2023-05-06T00:58:11.931Z,239.37
2023-05-06T00:59:11.975Z,239.50
2023-05-06T01:00:12.003Z,238.58
2023-05-06T01:01:12.112Z,237.64
2023-05-06T01:02:12.118Z,236.49
2023-05-06T01:03:12.092Z,236.02
2023-05-06T01:04:12.054Z,236.12
2023-05-06T01:05:12.443Z,237.63
2023-05-06T01:06:12.093Z,238.57
2023-05-06T01:07:12.125Z,239.32
2023-05-06T01:08:12.176Z,240.07
2023-05-06T01:09:12.144Z,239.64
2023-05-06T01:10:12.184Z,239.30
2023-05-06T01:11:13.515Z,237.61
2023-05-06T01:12:12.156Z,236.92
2023-05-06T01:13:12.272Z,234.86
2023-05-06T01:14:12.099Z,235.12
2023-05-06T01:15:12.327Z,233.87
2023-05-06T01:16:12.014Z,232.50
2023-05-06T01:17:12.060Z,229.82
2023-05-06T01:18:11.991Z,230.40
2023-05-06T01:19:11.973Z,231.14
2023-05-06T01:20:11.907Z,229.78
2023-05-06T01:21:11.940Z,229.23
2023-05-06T01:22:11.914Z,228.19
2023-05-06T01:23:11.863Z,227.57
2023-05-06T01:24:11.796Z,226.64
2023-05-06T01:25:11.884Z,225.02
2023-05-06T01:26:11.757Z,224.15
2023-05-06T01:27:11.767Z,223.81
2023-05-06T01:28:11.736Z,222.87
2023-05-06T01:29:11.634Z,223.86
2023-05-06T01:30:11.650Z,225.55
2023-05-06T01:31:11.646Z,226.30
2023-05-06T01:32:11.601Z,228.03
2023-05-06T01:33:11.562Z,227.39
2023-05-06T01:34:11.532Z,227.70
2023-05-06T01:35:11.587Z,227.29
2023-05-06T01:36:11.440Z,227.81
2023-05-06T01:37:11.486Z,228.04
2023-05-06T01:38:11.341Z,228.86
2023-05-06T01:39:11.323Z,230.01
2023-05-06T01:40:11.271Z,232.02
2023-05-06T01:41:11.280Z,233.04
2023-05-06T01:42:11.220Z,234.70
2023-05-06T01:43:11.153Z,234.39
2023-05-06T01:44:11.168Z,234.60
2023-05-06T01:45:11.256Z,235.86
2023-05-06T01:46:11.100Z,236.95
2023-05-06T01:47:11.023Z,238.15
2023-05-06T01:48:11.030Z,239.78
2023-05-06T01:49:11.004Z,240.03
2023-05-06T01:50:10.931Z,240.00
2023-05-06T01:51:10.916Z,240.18
2023-05-06T01:52:10.883Z,240.44
2023-05-06T01:53:10.913Z,240.88
2023-05-06T01:54:10.826Z,241.82
2023-05-06T01:55:11.001Z,242.43
2023-05-06T01:56:10.752Z,242.10
2023-05-06T01:57:10.747Z,242.43
2023-05-06T01:58:10.691Z,243.20
2023-05-06T01:59:10.695Z,243.26
2023-05-06T02:00:10.625Z,244.05
2023-05-06T02:01:10.709Z,244.39
2023-05-06T02:02:10.703Z,244.87
2023-05-06T02:03:10.804Z,244.88
2023-05-06T02:04:10.727Z,245.35
2023-05-06T02:05:10.932Z,245.69
2023-05-06T02:06:10.743Z,246.99
2023-05-06T02:07:10.794Z,246.73
2023-05-06T02:08:10.804Z,246.97
2023-05-06T02:09:10.922Z,246.91
2023-05-06T02:10:10.838Z,248.14
2023-05-06T02:11:10.836Z,247.98
2023-05-06T02:12:10.891Z,248.42
2023-05-06T02:13:10.916Z,248.33
2023-05-06T02:14:10.915Z,248.81
2023-05-06T02:15:11.106Z,247.43
2023-05-06T02:16:10.949Z,248.27
2023-05-06T02:17:10.989Z,247.89
2023-05-06T02:18:10.972Z,247.94
2023-05-06T02:19:11.009Z,247.22
2023-05-06T02:20:11.037Z,246.93
2023-05-06T02:21:11.045Z,246.59
2023-05-06T02:22:11.036Z,246.96
2023-05-06T02:23:11.089Z,247.43
2023-05-06T02:24:11.059Z,248.02
2023-05-06T02:25:11.276Z,248.64
2023-05-06T02:26:11.141Z,249.06
2023-05-06T02:27:11.151Z,248.49
2023-05-06T02:28:11.165Z,248.87
2023-05-06T02:29:11.194Z,248.54
2023-05-06T02:30:11.190Z,248.62
2023-05-06T02:31:11.258Z,248.71
2023-05-06T02:32:11.224Z,249.07
2023-05-06T02:33:11.212Z,249.35
2023-05-06T02:34:11.268Z,249.08
2023-05-06T02:35:11.480Z,249.81
2023-05-06T02:36:11.297Z,249.43
2023-05-06T02:37:11.306Z,250.00
2023-05-06T02:38:11.306Z,249.46
2023-05-06T02:39:11.355Z,248.91
2023-05-06T02:40:11.409Z,246.97
2023-05-06T02:41:11.426Z,245.76
2023-05-06T02:42:11.426Z,245.15
2023-05-06T02:43:11.420Z,244.96
2023-05-06T02:44:11.388Z,244.50
2023-05-06T02:45:11.633Z,243.84
2023-05-06T02:46:11.494Z,244.89
2023-05-06T02:47:11.463Z,245.87
2023-05-06T02:48:11.443Z,246.57
2023-05-06T02:49:11.445Z,247.07
2023-05-06T02:50:11.471Z,248.09
2023-05-06T02:51:11.472Z,247.49
2023-05-06T02:52:11.484Z,247.08
2023-05-06T02:53:11.498Z,244.36
2023-05-06T02:54:11.504Z,242.84
2023-05-06T02:55:11.658Z,241.15
2023-05-06T02:56:11.571Z,240.86
2023-05-06T02:57:11.612Z,240.88
2023-05-06T02:58:11.618Z,240.19
2023-05-06T02:59:11.552Z,240.13
2023-05-06T03:00:11.589Z,239.72
2023-05-06T03:01:11.639Z,239.47
2023-05-06T03:02:11.599Z,238.12
2023-05-06T03:03:11.593Z,236.93
2023-05-06T03:04:11.603Z,236.89
2023-05-06T03:05:11.737Z,236.84
2023-05-06T03:06:11.580Z,235.43
2023-05-06T03:07:11.596Z,234.82
2023-05-06T03:08:11.590Z,233.57
2023-05-06T03:09:11.650Z,232.75
2023-05-06T03:10:11.634Z,232.96
2023-05-06T03:11:11.632Z,232.43
2023-05-06T03:12:11.638Z,233.46
2023-05-06T03:13:11.742Z,233.56
2023-05-06T03:14:11.675Z,234.77
2023-05-06T03:15:11.782Z,235.53
2023-05-06T03:16:11.718Z,237.54
2023-05-06T03:17:11.668Z,238.25
2023-05-06T03:18:11.710Z,237.51
2023-05-06T03:19:11.684Z,235.86
2023-05-06T03:20:11.677Z,235.09
2023-05-06T03:21:11.744Z,234.84
2023-05-06T03:22:11.715Z,235.09
2023-05-06T03:23:11.713Z,237.69
2023-05-06T03:24:11.769Z,237.53
2023-05-06T03:25:11.973Z,237.31
2023-05-06T03:26:11.740Z,238.49
2023-05-06T03:27:11.757Z,239.63
2023-05-06T03:28:11.765Z,241.51
2023-05-06T03:29:11.940Z,241.84
2023-05-06T03:30:11.781Z,241.37
2023-05-06T03:31:11.788Z,241.15
2023-05-06T03:32:11.838Z,240.91
2023-05-06T03:33:11.838Z,241.10
2023-05-06T03:34:11.898Z,241.74
2023-05-06T03:35:12.086Z,240.74
2023-05-06T03:36:11.880Z,239.42
2023-05-06T03:37:11.922Z,239.18
2023-05-06T03:38:11.915Z,239.60
2023-05-06T03:39:11.954Z,240.51
2023-05-06T03:40:11.994Z,240.98
2023-05-06T03:41:11.988Z,241.14
2023-05-06T03:42:11.999Z,239.90
2023-05-06T03:43:11.985Z,239.25
2023-05-06T03:44:12.024Z,239.44
2023-05-06T03:45:12.565Z,238.71
2023-05-06T03:46:12.073Z,238.06
2023-05-06T03:47:12.065Z,239.66
2023-05-06T03:48:12.128Z,240.30
2023-05-06T03:49:12.109Z,239.59
2023-05-06T03:50:12.156Z,238.83
2023-05-06T03:51:12.159Z,238.52
2023-05-06T03:52:12.184Z,240.35
2023-05-06T03:53:12.206Z,239.75
2023-05-06T03:54:12.189Z,238.92
2023-05-06T03:55:12.401Z,237.98
2023-05-06T03:56:12.185Z,238.41
2023-05-06T03:57:12.227Z,237.55
2023-05-06T03:58:12.245Z,238.18
2023-05-06T03:59:12.259Z,239.27
2023-05-06T04:00:12.279Z,239.26
2023-05-06T04:01:12.431Z,239.19
2023-05-06T04:02:12.360Z,239.16
2023-05-06T04:03:12.427Z,237.93
2023-05-06T04:04:12.518Z,236.47
2023-05-06T04:05:12.458Z,234.96
2023-05-06T04:06:12.394Z,232.82
2023-05-06T04:07:12.444Z,230.75
2023-05-06T04:08:12.492Z,228.88
2023-05-06T04:09:12.488Z,227.83
2023-05-06T04:10:12.503Z,225.19
2023-05-06T04:11:12.513Z,223.72
2023-05-06T04:12:12.525Z,223.70
2023-05-06T04:13:12.584Z,223.19
2023-05-06T04:14:12.551Z,221.62
2023-05-06T04:15:12.728Z,221.47
2023-05-06T04:16:12.648Z,220.34
2023-05-06T04:17:12.645Z,218.18
2023-05-06T04:18:12.586Z,218.04
2023-05-06T04:19:12.606Z,216.66
2023-05-06T04:20:12.603Z,217.14
2023-05-06T04:21:12.613Z,216.39
2023-05-06T04:22:12.611Z,215.76
2023-05-06T04:23:12.598Z,216.18
2023-05-06T04:24:12.598Z,216.13
2023-05-06T04:25:12.747Z,215.41
2023-05-06T04:26:12.605Z,216.60
2023-05-06T04:27:12.614Z,216.60
2023-05-06T04:28:12.607Z,217.09
2023-05-06T04:29:12.600Z,216.55
2023-05-06T04:30:12.659Z,216.00
2023-05-06T04:31:12.616Z,216.77
2023-05-06T04:32:12.626Z,217.39
2023-05-06T04:33:12.697Z,219.18
2023-05-06T04:34:12.596Z,220.53
2023-05-06T04:35:12.705Z,220.90
2023-05-06T04:36:12.610Z,221.31
2023-05-06T04:37:12.618Z,221.69
2023-05-06T04:38:12.622Z,222.09
2023-05-06T04:39:12.615Z,221.50
2023-05-06T04:40:12.605Z,221.18
2023-05-06T04:41:12.628Z,221.76
2023-05-06T04:42:12.660Z,221.58
2023-05-06T04:43:12.656Z,221.86
2023-05-06T04:44:12.674Z,221.31
2023-05-06T04:45:12.671Z,223.03
2023-05-06T04:46:12.711Z,222.59
2023-05-06T04:47:12.643Z,223.64
2023-05-06T04:48:12.637Z,227.58
2023-05-06T04:49:12.807Z,229.60
2023-05-06T04:50:12.644Z,229.41
2023-05-06T04:51:12.613Z,230.07
2023-05-06T04:52:12.578Z,230.34
2023-05-06T04:53:12.614Z,231.34
2023-05-06T04:54:12.652Z,233.19
2023-05-06T04:55:12.906Z,234.82
2023-05-06T04:56:12.649Z,235.85
2023-05-06T04:57:12.655Z,237.70
2023-05-06T04:58:12.648Z,236.76
2023-05-06T04:59:13.227Z,237.85
2023-05-06T05:00:12.700Z,240.16
2023-05-06T05:01:12.686Z,239.49
2023-05-06T05:02:12.660Z,240.72
2023-05-06T05:03:12.814Z,240.28
2023-05-06T05:04:12.662Z,240.08
2023-05-06T05:05:12.854Z,240.21
2023-05-06T05:06:12.670Z,241.18
2023-05-06T05:07:12.691Z,239.85
2023-05-06T05:08:12.683Z,239.27
2023-05-06T05:09:12.672Z,239.58
2023-05-06T05:10:12.675Z,239.57
2023-05-06T05:11:12.711Z,240.80
2023-05-06T05:12:12.766Z,242.30
2023-05-06T05:13:12.718Z,243.07
2023-05-06T05:14:12.728Z,242.08
2023-05-06T05:15:12.953Z,241.88
2023-05-06T05:16:12.757Z,241.44
2023-05-06T05:17:12.828Z,241.70
2023-05-06T05:18:12.849Z,241.65
2023-05-06T05:19:12.812Z,239.32
2023-05-06T05:20:12.816Z,239.48
2023-05-06T05:21:12.903Z,239.43
2023-05-06T05:22:12.889Z,238.66
2023-05-06T05:23:12.830Z,238.07
2023-05-06T05:24:12.877Z,235.39
2023-05-06T05:25:13.200Z,234.12
2023-05-06T05:26:12.857Z,232.72
2023-05-06T05:27:12.860Z,231.21
2023-05-06T05:28:12.815Z,229.66
2023-05-06T05:29:13.732Z,227.03
2023-05-06T05:30:12.813Z,224.86
2023-05-06T05:31:12.821Z,222.39
2023-05-06T05:32:12.810Z,220.37
2023-05-06T05:33:12.851Z,221.03
2023-05-06T05:34:12.789Z,219.27
2023-05-06T05:35:12.826Z,217.14
2023-05-06T05:36:12.787Z,215.24
2023-05-06T05:37:12.853Z,214.90
2023-05-06T05:38:12.789Z,213.19
2023-05-06T05:39:12.774Z,213.61
2023-05-06T05:40:12.782Z,213.02
2023-05-06T05:41:13.127Z,211.94
2023-05-06T05:42:12.820Z,212.08
2023-05-06T05:43:12.828Z,210.65
2023-05-06T05:44:12.777Z,211.73
2023-05-06T05:45:12.783Z,213.00
2023-05-06T05:46:12.818Z,213.57
2023-05-06T05:47:12.798Z,215.70
2023-05-06T05:48:12.730Z,216.17
2023-05-06T05:49:12.722Z,215.68
2023-05-06T05:50:12.716Z,217.77
2023-05-06T05:51:12.726Z,218.44
2023-05-06T05:52:12.767Z,220.37
2023-05-06T05:53:12.753Z,220.82
2023-05-06T05:54:12.800Z,221.64
2023-05-06T05:55:13.738Z,222.82
2023-05-06T05:56:12.812Z,222.62
2023-05-06T05:57:12.781Z,224.55
2023-05-06T05:58:12.825Z,225.15
2023-05-06T05:59:12.804Z,225.37
2023-05-06T06:00:13.732Z,225.37
2023-05-06T06:01:12.789Z,225.98
2023-05-06T06:02:12.847Z,226.87
2023-05-06T06:03:12.960Z,227.69
2023-05-06T06:04:12.910Z,228.09
2023-05-06T06:05:12.882Z,228.49
2023-05-06T06:06:12.885Z,228.57
2023-05-06T06:07:12.936Z,228.98
2023-05-06T06:08:12.894Z,229.84
2023-05-06T06:09:12.929Z,230.48
2023-05-06T06:10:12.952Z,230.68
2023-05-06T06:11:12.951Z,232.34
2023-05-06T06:12:12.948Z,233.15
2023-05-06T06:13:12.957Z,233.59
2023-05-06T06:14:12.993Z,234.76
2023-05-06T06:15:12.965Z,235.98
2023-05-06T06:16:13.144Z,236.85
2023-05-06T06:17:13.062Z,236.84
2023-05-06T06:18:13.058Z,235.83
2023-05-06T06:19:13.039Z,232.60
2023-05-06T06:20:13.755Z,230.75
2023-05-06T06:21:13.085Z,230.49
2023-05-06T06:22:13.112Z,228.98
2023-05-06T06:23:13.104Z,229.75
2023-05-06T06:24:13.101Z,229.80
2023-05-06T06:25:13.255Z,231.69
2023-05-06T06:26:13.149Z,232.46
2023-05-06T06:27:13.193Z,233.12
2023-05-06T06:28:13.135Z,234.40
2023-05-06T06:29:13.177Z,235.56
2023-05-06T06:30:13.176Z,236.00
2023-05-06T06:31:13.195Z,237.02
2023-05-06T06:32:13.285Z,237.97
2023-05-06T06:33:13.197Z,237.53
2023-05-06T06:34:13.208Z,237.90
2023-05-06T06:35:13.248Z,238.01
2023-05-06T06:36:13.257Z,236.56
2023-05-06T06:37:13.247Z,235.06
2023-05-06T06:38:13.243Z,232.25
2023-05-06T06:39:13.252Z,230.42
2023-05-06T06:40:13.290Z,230.68
2023-05-06T06:41:13.315Z,230.10
2023-05-06T06:42:13.297Z,229.34
2023-05-06T06:43:13.266Z,228.04
2023-05-06T06:44:13.235Z,227.51
2023-05-06T06:45:13.316Z,226.35
2023-05-06T06:46:13.297Z,226.02
2023-05-06T06:47:13.229Z,224.65
2023-05-06T06:48:13.277Z,225.08
2023-05-06T06:49:13.277Z,224.84
2023-05-06T06:50:13.254Z,225.41
2023-05-06T06:51:13.249Z,224.65
2023-05-06T06:52:13.273Z,225.04
2023-05-06T06:53:13.269Z,223.99
2023-05-06T06:54:13.282Z,223.94
2023-05-06T06:55:13.427Z,223.74
2023-05-06T06:56:13.283Z,223.09
2023-05-06T06:57:13.337Z,221.52
2023-05-06T06:58:13.305Z,219.16
2023-05-06T06:59:13.245Z,218.76
2023-05-06T07:00:13.262Z,216.65
2023-05-06T07:01:13.300Z,214.85
2023-05-06T07:02:13.292Z,211.80
2023-05-06T07:03:13.258Z,209.50
2023-05-06T07:04:13.329Z,207.67
2023-05-06T07:05:13.368Z,204.74
2023-05-06T07:06:13.267Z,202.58
2023-05-06T07:07:13.275Z,198.95
2023-05-06T07:08:13.244Z,197.36
2023-05-06T07:09:13.265Z,194.41
2023-05-06T07:10:13.275Z,192.39
2023-05-06T07:11:13.264Z,189.78
2023-05-06T07:12:13.272Z,188.77
2023-05-06T07:13:13.533Z,185.81
2023-05-06T07:14:13.264Z,182.37
2023-05-06T07:15:13.518Z,181.23
2023-05-06T07:16:13.264Z,180.06
2023-05-06T07:17:13.315Z,179.75
2023-05-06T07:18:13.329Z,178.23
2023-05-06T07:19:13.295Z,177.42
2023-05-06T07:20:13.345Z,177.09
2023-05-06T07:21:13.306Z,176.56
2023-05-06T07:22:13.306Z,177.34
2023-05-06T07:23:13.318Z,177.49
2023-05-06T07:24:13.313Z,177.85
2023-05-06T07:25:13.408Z,176.57
2023-05-06T07:26:13.332Z,175.70
2023-05-06T07:27:13.350Z,178.29
2023-05-06T07:28:13.331Z,179.44
2023-05-06T07:29:13.425Z,179.48
2023-05-06T07:30:13.294Z,178.00
2023-05-06T07:31:13.380Z,175.76
2023-05-06T07:32:13.290Z,174.42
2023-05-06T07:33:13.306Z,177.89
2023-05-06T07:34:13.294Z,176.12
2023-05-06T07:35:13.339Z,175.83
2023-05-06T07:36:13.247Z,174.66
2023-05-06T07:37:13.270Z,173.52
2023-05-06T07:38:13.257Z,174.21
2023-05-06T07:39:13.266Z,173.39
2023-05-06T07:40:13.280Z,174.85
2023-05-06T07:41:13.268Z,173.64
2023-05-06T07:42:13.283Z,173.60
2023-05-06T07:43:13.286Z,173.44
2023-05-06T07:44:13.248Z,174.19
2023-05-06T07:45:13.449Z,172.67
2023-05-06T07:46:13.312Z,172.74
2023-05-06T07:47:13.309Z,172.06
2023-05-06T07:48:13.369Z,173.93
2023-05-06T07:49:13.266Z,176.48
2023-05-06T07:50:13.317Z,180.40
2023-05-06T07:51:13.317Z,185.42
2023-05-06T07:52:13.347Z,186.05
2023-05-06T07:53:13.331Z,188.18
2023-05-06T07:54:13.357Z,188.40
2023-05-06T07:55:13.631Z,189.36
2023-05-06T07:56:13.378Z,191.03
2023-05-06T07:57:13.465Z,192.11
2023-05-06T07:58:13.408Z,192.94
2023-05-06T07:59:13.417Z,196.86
2023-05-06T08:00:13.429Z,198.33
2023-05-06T08:01:13.519Z,202.31
2023-05-06T08:02:13.507Z,203.63
2023-05-06T08:03:13.540Z,205.85
2023-05-06T08:04:13.712Z,205.78
2023-05-06T08:05:13.511Z,206.21
2023-05-06T08:06:13.477Z,208.91
2023-05-06T08:07:13.529Z,210.60
2023-05-06T08:08:13.529Z,213.12
2023-05-06T08:09:22.004Z,211.15
2023-05-06T08:10:14.504Z,211.25
2023-05-06T08:11:13.442Z,211.61
2023-05-06T08:12:13.434Z,213.63
2023-05-06T08:13:13.487Z,216.65
2023-05-06T08:14:13.337Z,221.90
2023-05-06T08:15:13.407Z,223.80
2023-05-06T08:16:13.284Z,222.97
2023-05-06T08:17:13.265Z,223.16
2023-05-06T08:18:21.530Z,222.70
2023-05-06T08:19:14.113Z,222.85
2023-05-06T08:20:13.057Z,223.14
2023-05-06T08:21:13.052Z,224.01
2023-05-06T08:22:12.997Z,228.38
2023-05-06T08:23:12.953Z,229.57
2023-05-06T08:24:12.890Z,231.98
2023-05-06T08:25:12.996Z,235.47
2023-05-06T08:26:12.793Z,234.58
2023-05-06T08:27:12.764Z,233.56
2023-05-06T08:28:12.720Z,232.65
2023-05-06T08:29:12.678Z,224.65
2023-05-06T08:30:12.722Z,207.10
2023-05-06T08:31:12.768Z,195.30
2023-05-06T08:32:12.741Z,190.31
2023-05-06T08:33:12.794Z,191.24
2023-05-06T08:34:12.798Z,190.18
2023-05-06T08:35:12.977Z,185.38
2023-05-06T08:36:12.797Z,181.84
2023-05-06T08:37:12.793Z,181.18
2023-05-06T08:38:12.805Z,179.21
2023-05-06T08:39:12.762Z,178.22
2023-05-06T08:40:12.777Z,181.68
2023-05-06T08:41:12.792Z,183.21
2023-05-06T08:42:12.835Z,180.57
2023-05-06T08:43:12.835Z,175.66
2023-05-06T08:44:12.785Z,172.20
2023-05-06T08:45:12.866Z,169.75
2023-05-06T08:46:12.810Z,165.33
2023-05-06T08:47:12.809Z,164.14
2023-05-06T08:48:12.852Z,159.90
2023-05-06T08:49:12.852Z,158.55
2023-05-06T08:50:12.877Z,154.27
2023-05-06T08:51:12.849Z,148.34
2023-05-06T08:52:12.801Z,146.24
2023-05-06T08:53:12.807Z,146.14
2023-05-06T08:54:12.803Z,145.25
2023-05-06T08:55:13.109Z,142.75
2023-05-06T08:56:12.886Z,144.43
2023-05-06T08:57:12.888Z,143.60
2023-05-06T08:58:12.885Z,144.17
2023-05-06T08:59:12.880Z,142.97
2023-05-06T09:00:12.915Z,142.74
2023-05-06T09:01:12.911Z,142.57
2023-05-06T09:02:12.938Z,138.23
2023-05-06T09:03:13.061Z,135.73
2023-05-06T09:04:12.896Z,133.24
2023-05-06T09:05:13.157Z,128.77
2023-05-06T09:06:12.930Z,129.52
2023-05-06T09:07:12.910Z,127.53
2023-05-06T09:08:12.910Z,122.77
2023-05-06T09:09:12.899Z,120.80
2023-05-06T09:10:12.886Z,119.43
2023-05-06T09:11:12.924Z,119.03
2023-05-06T09:12:12.900Z,123.12
2023-05-06T09:13:13.020Z,125.19
2023-05-06T09:14:12.909Z,125.76
2023-05-06T09:15:13.181Z,127.90
2023-05-06T09:16:12.989Z,127.36
2023-05-06T09:17:12.966Z,127.93
2023-05-06T09:18:13.041Z,127.94
2023-05-06T09:19:12.959Z,128.52
2023-05-06T09:20:12.922Z,129.05
2023-05-06T09:21:12.902Z,127.44
2023-05-06T09:22:12.938Z,128.86
2023-05-06T09:23:12.944Z,129.42
2023-05-06T09:24:12.914Z,131.09
2023-05-06T09:25:13.073Z,129.93
2023-05-06T09:26:12.921Z,128.76
2023-05-06T09:27:15.066Z,129.59
2023-05-06T09:28:12.938Z,131.07
2023-05-06T09:29:12.943Z,129.95
2023-05-06T09:30:12.877Z,125.71
2023-05-06T09:31:12.915Z,126.18
2023-05-06T09:32:12.892Z,125.75
2023-05-06T09:33:12.942Z,127.08
2023-05-06T09:34:12.920Z,129.37
2023-05-06T09:35:13.133Z,130.83
2023-05-06T09:36:12.884Z,131.28
2023-05-06T09:37:12.875Z,129.37
2023-05-06T09:38:12.941Z,130.37
2023-05-06T09:39:12.834Z,129.89
2023-05-06T09:40:12.847Z,131.12
2023-05-06T09:41:12.822Z,130.83
2023-05-06T09:42:12.871Z,133.82
2023-05-06T09:43:12.813Z,132.99
2023-05-06T09:44:12.864Z,133.68
2023-05-06T09:45:12.939Z,135.73
2023-05-06T09:46:12.826Z,134.81
2023-05-06T09:47:12.782Z,135.45
2023-05-06T09:48:12.811Z,136.54
2023-05-06T09:49:12.770Z,138.84
2023-05-06T09:50:12.717Z,139.34
2023-05-06T09:51:12.696Z,141.98
2023-05-06T09:52:12.737Z,141.94
2023-05-06T09:53:12.741Z,139.77
2023-05-06T09:54:12.680Z,143.05
2023-05-06T09:55:12.914Z,143.54
2023-05-06T09:56:12.655Z,141.80
2023-05-06T09:57:12.640Z,139.08
2023-05-06T09:58:12.599Z,136.50
2023-05-06T09:59:12.594Z,138.84
2023-05-06T10:00:12.678Z,138.54
2023-05-06T10:01:15.195Z,138.66
2023-05-06T10:02:13.582Z,138.73
2023-05-06T10:03:12.619Z,138.86
2023-05-06T10:04:12.567Z,139.93
2023-05-06T10:05:12.673Z,139.90
2023-05-06T10:06:12.335Z,141.64
2023-05-06T10:07:12.306Z,142.80
2023-05-06T10:08:12.292Z,144.06
2023-05-06T10:09:12.222Z,144.17
2023-05-06T10:10:12.287Z,146.89
2023-05-06T10:11:12.215Z,151.78
2023-05-06T10:12:12.112Z,159.78
2023-05-06T10:13:12.147Z,162.94
2023-05-06T10:14:12.036Z,165.84
2023-05-06T10:15:12.183Z,168.38
2023-05-06T10:16:14.556Z,168.75
2023-05-06T10:17:11.957Z,169.75
2023-05-06T10:18:11.821Z,170.50
2023-05-06T10:19:11.800Z,172.76
2023-05-06T10:20:11.730Z,173.91
2023-05-06T10:21:11.703Z,177.13
2023-05-06T10:22:11.642Z,179.33
2023-05-06T10:23:11.591Z,183.16
2023-05-06T10:24:11.647Z,187.02
2023-05-06T10:25:11.687Z,192.36
2023-05-06T10:26:11.499Z,191.62
2023-05-06T10:27:11.437Z,194.62
2023-05-06T10:28:23.011Z,196.22
2023-05-06T10:29:12.356Z,196.42
2023-05-06T10:30:11.271Z,197.42
2023-05-06T10:31:11.283Z,199.67
2023-05-06T10:32:11.171Z,203.28
2023-05-06T10:33:11.128Z,207.55
2023-05-06T10:34:11.126Z,210.70
2023-05-06T10:35:11.265Z,210.46
2023-05-06T10:36:11.067Z,209.85
2023-05-06T10:37:10.960Z,210.00
2023-05-06T10:38:10.912Z,214.89
2023-05-06T10:39:10.913Z,213.61
2023-05-06T10:40:10.932Z,219.38
2023-05-06T10:41:10.968Z,235.73
2023-05-06T10:42:10.927Z,233.54
2023-05-06T10:43:10.896Z,232.68
2023-05-06T10:44:10.920Z,226.36
2023-05-06T10:45:11.120Z,230.56
2023-05-06T10:46:10.988Z,221.36
2023-05-06T10:47:10.890Z,218.37
2023-05-06T10:48:10.957Z,227.24
2023-05-06T10:49:11.015Z,227.52
2023-05-06T10:50:10.894Z,228.53
2023-05-06T10:51:10.906Z,233.92
2023-05-06T10:52:10.912Z,229.49
2023-05-06T10:53:10.913Z,227.33
2023-05-06T10:54:10.897Z,233.71
2023-05-06T10:55:11.055Z,236.16
2023-05-06T10:56:10.925Z,229.20
2023-05-06T10:57:10.959Z,233.01
2023-05-06T10:58:10.899Z,237.76
2023-05-06T10:59:10.899Z,239.24
2023-05-06T11:00:10.904Z,240.63
2023-05-06T11:01:10.942Z,233.85
2023-05-06T11:02:10.918Z,229.93
2023-05-06T11:03:11.000Z,238.87
2023-05-06T11:04:10.913Z,241.48
2023-05-06T11:05:11.085Z,242.04
2023-05-06T11:06:10.888Z,244.37
2023-05-06T11:07:10.937Z,243.80
2023-05-06T11:08:10.918Z,244.15
2023-05-06T11:09:10.918Z,238.81
2023-05-06T11:10:10.935Z,240.40
2023-05-06T11:11:10.911Z,238.92
2023-05-06T11:12:10.883Z,244.15
2023-05-06T11:13:11.051Z,246.49
2023-05-06T11:14:10.924Z,247.68
2023-05-06T11:15:11.133Z,247.17
2023-05-06T11:16:10.925Z,246.56
2023-05-06T11:17:10.964Z,247.53
2023-05-06T11:18:10.924Z,239.02
2023-05-06T11:19:10.911Z,234.98
2023-05-06T11:20:11.194Z,241.17
2023-05-06T11:21:10.890Z,244.60
2023-05-06T11:22:10.953Z,242.08
2023-05-06T11:23:10.883Z,234.94
2023-05-06T11:24:10.873Z,238.04
2023-05-06T11:25:10.878Z,238.09
2023-05-06T11:26:10.886Z,242.44
2023-05-06T11:27:10.848Z,245.01
2023-05-06T11:28:10.873Z,236.05
2023-05-06T11:29:10.945Z,231.77
2023-05-06T11:30:11.088Z,225.50
2023-05-06T11:31:10.860Z,219.57
2023-05-06T11:32:10.833Z,218.11
2023-05-06T11:33:10.846Z,218.23
2023-05-06T11:34:10.853Z,205.90
2023-05-06T11:35:10.853Z,196.07
2023-05-06T11:36:10.810Z,187.02
2023-05-06T11:37:10.822Z,176.56
2023-05-06T11:38:10.923Z,173.09
2023-05-06T11:39:10.808Z,173.52
2023-05-06T11:40:11.090Z,175.41
2023-05-06T11:41:10.829Z,170.81
2023-05-06T11:42:10.828Z,163.44
2023-05-06T11:43:10.837Z,159.37
2023-05-06T11:44:11.635Z,156.98
2023-05-06T11:45:10.857Z,159.28
2023-05-06T11:46:10.862Z,164.84
2023-05-06T11:47:10.821Z,168.64
2023-05-06T11:48:10.817Z,170.03
2023-05-06T11:49:10.792Z,170.99
2023-05-06T11:50:11.094Z,172.34
2023-05-06T11:51:10.815Z,173.98
2023-05-06T11:52:10.861Z,175.09
2023-05-06T11:53:10.805Z,174.47
2023-05-06T11:54:10.824Z,171.23
2023-05-06T11:55:10.788Z,180.36
2023-05-06T11:56:10.836Z,189.32
2023-05-06T11:57:10.811Z,184.77
2023-05-06T11:58:10.805Z,187.06
2023-05-06T11:59:10.788Z,192.82
2023-05-06T12:00:10.926Z,184.87
2023-05-06T12:01:10.771Z,179.18
2023-05-06T12:02:10.773Z,177.38
2023-05-06T12:03:10.815Z,179.10
2023-05-06T12:04:10.843Z,190.17
2023-05-06T12:05:10.799Z,192.31
2023-05-06T12:06:10.752Z,194.97
2023-05-06T12:07:10.844Z,197.75
2023-05-06T12:08:20.040Z,194.80
2023-05-06T12:09:11.731Z,190.19
2023-05-06T12:10:10.846Z,186.60
2023-05-06T12:11:10.613Z,175.62
2023-05-06T12:12:10.566Z,179.47
2023-05-06T12:13:10.526Z,185.04
2023-05-06T12:14:10.470Z,186.50
2023-05-06T12:15:10.442Z,187.28
2023-05-06T12:16:10.373Z,183.69
2023-05-06T12:17:10.449Z,178.04
2023-05-06T12:18:10.261Z,174.21
2023-05-06T12:19:10.243Z,168.91
2023-05-06T12:20:10.360Z,165.27
2023-05-06T12:21:10.132Z,161.21
2023-05-06T12:22:10.111Z,164.47
2023-05-06T12:23:10.170Z,171.80
2023-05-06T12:24:10.180Z,172.81
2023-05-06T12:25:10.272Z,179.46
2023-05-06T12:26:10.146Z,185.96
2023-05-06T12:27:10.116Z,185.32
2023-05-06T12:28:10.184Z,182.90